Time;durP1;ratioP1;P1;durP2;ratioP2;P2;SDS_P1;SDS_P2;PMS_P1;PMS_P2;Temp;Humidity;BMP_temperature;BMP_pressure;BME280_temperature;BME280_humidity;BME280_pressure;Samples;Min_cycle;Max_cycle;Signal;HPM_P1;HPM_P2
2024/04/16 00:01:11;;;;;;;9.63;0.80;;;5.80;99.90;;;;;;5381196;26;20011;-81
2024/04/16 00:03:39;;;;;;;7.85;1.23;;;5.80;99.90;;;;;;5381329;26;19997;-80
2024/04/16 00:06:06;;;;;;;5.10;1.00;;;5.80;99.90;;;;;;5352505;26;20456;-80
2024/04/16 00:08:35;;;;;;;6.80;0.85;;;5.90;99.90;;;;;;5325050;26;20011;-80
2024/04/16 00:11:03;;;;;;;4.93;0.80;;;5.90;99.90;;;;;;5379512;26;20004;-80
2024/04/16 00:13:30;;;;;;;4.20;0.65;;;6.00;99.90;;;;;;5348127;26;20449;-81
2024/04/16 00:15:58;;;;;;;6.85;1.17;;;6.10;99.90;;;;;;5317670;26;20033;-81
2024/04/16 00:18:26;;;;;;;5.10;1.20;;;6.20;99.90;;;;;;5303017;26;20426;-81
2024/04/16 00:20:53;;;;;;;5.32;0.75;;;6.30;99.90;;;;;;5352101;26;20321;-79
2024/04/16 00:23:21;;;;;;;6.88;1.30;;;6.40;99.90;;;;;;5324028;26;20008;-79
2024/04/16 00:25:48;;;;;;;15.82;1.20;;;6.40;99.90;;;;;;5352181;26;19996;-80
2024/04/16 00:28:15;;;;;;;6.72;0.70;;;6.50;99.90;;;;;;5352141;26;20335;-80
2024/04/16 00:30:42;;;;;;;13.98;1.73;;;6.60;99.90;;;;;;5381096;26;19996;-81
2024/04/16 00:33:09;;;;;;;4.55;0.82;;;6.60;99.90;;;;;;5381011;26;20011;-81
2024/04/16 00:35:36;;;;;;;6.95;1.55;;;6.60;99.90;;;;;;5351911;26;20000;-79
2024/04/16 00:38:06;;;;;;;4.05;0.60;;;6.70;99.90;;;;;;5380816;26;20008;-79
2024/04/16 00:40:36;;;;;;;5.07;1.00;;;6.70;99.90;;;;;;5352555;26;20000;-80
2024/04/16 00:43:20;;;;;;;6.88;1.33;;;6.80;99.90;;;;;;5381062;26;20000;-79
2024/04/16 00:45:52;;;;;;;9.57;1.15;;;6.90;99.90;;;;;;5380500;26;20000;-80
2024/04/16 00:48:25;;;;;;;7.47;1.58;;;6.90;99.90;;;;;;5380543;26;19997;-80
2024/04/16 00:50:55;;;;;;;9.93;1.17;;;6.90;99.90;;;;;;5380686;26;20011;-80
2024/04/16 00:53:23;;;;;;;7.22;0.85;;;7.00;99.90;;;;;;5380636;26;20004;-80
2024/04/16 00:55:51;;;;;;;7.97;0.90;;;7.00;99.90;;;;;;5410234;26;20464;-81
2024/04/16 00:58:20;;;;;;;6.13;1.15;;;7.00;99.90;;;;;;5323120;26;20012;-80
2024/04/16 01:00:47;;;;;;;9.77;1.88;;;7.00;99.90;;;;;;5380622;26;20022;-80
2024/04/16 01:03:17;;;;;;;8.50;0.70;;;7.10;99.90;;;;;;5380527;26;20016;-81
2024/04/16 01:05:44;;;;;;;4.60;0.65;;;7.10;99.90;;;;;;5380876;26;20007;-81
2024/04/16 01:08:12;;;;;;;9.77;1.55;;;7.00;99.90;;;;;;5380579;26;20016;-81
2024/04/16 01:10:40;;;;;;;8.23;1.27;;;7.00;99.90;;;;;;5380666;26;20522;-80
2024/04/16 01:13:11;;;;;;;7.22;0.80;;;7.00;99.90;;;;;;5347312;26;20079;-80
2024/04/16 01:15:38;;;;;;;7.68;1.40;;;6.80;99.90;;;;;;5380431;26;20385;-80
2024/04/16 01:18:06;;;;;;;5.53;1.02;;;6.70;99.90;;;;;;5351525;26;20000;-80
2024/04/16 01:20:34;;;;;;;3.20;0.75;;;6.60;99.90;;;;;;5380361;26;20007;-81
2024/04/16 01:23:02;;;;;;;7.53;0.95;;;6.50;99.90;;;;;;5351071;26;20460;-81
2024/04/16 01:25:35;;;;;;;4.07;1.25;;;6.60;99.90;;;;;;5380326;26;20000;-80
2024/04/16 01:28:05;;;;;;;3.05;0.70;;;6.60;99.90;;;;;;5352695;26;20008;-80
2024/04/16 01:30:35;;;;;;;4.50;0.60;;;6.60;99.90;;;;;;5379998;26;20004;-79
2024/04/16 01:33:08;;;;;;;3.67;0.60;;;6.50;99.90;;;;;;5379933;26;20452;-80
2024/04/16 01:35:35;;;;;;;3.97;0.50;;;6.50;99.90;;;;;;5352198;26;20004;-79
2024/04/16 01:38:04;;;;;;;4.82;0.88;;;6.50;99.90;;;;;;5380351;26;20028;-80
2024/04/16 01:40:31;;;;;;;4.68;0.70;;;6.50;99.90;;;;;;5379924;26;20043;-79
2024/04/16 01:42:58;;;;;;;5.38;0.80;;;6.50;99.90;;;;;;5379915;26;20007;-80
2024/04/16 01:45:25;;;;;;;3.17;0.90;;;6.50;99.90;;;;;;5380287;26;20000;-80
2024/04/16 01:47:56;;;;;;;5.18;0.88;;;6.50;99.90;;;;;;5380256;26;20000;-81
2024/04/16 01:50:23;;;;;;;3.92;0.57;;;6.50;99.90;;;;;;5409138;26;20007;-80
2024/04/16 01:52:50;;;;;;;7.53;1.10;;;6.50;99.90;;;;;;5350880;26;20015;-80
2024/04/16 01:55:17;;;;;;;9.43;1.02;;;6.50;99.90;;;;;;5350667;26;19996;-80
2024/04/16 01:57:44;;;;;;;6.40;0.82;;;6.50;99.90;;;;;;5380102;26;20000;-80
2024/04/16 02:00:11;;;;;;;5.95;0.70;;;6.60;99.90;;;;;;5383136;26;19996;-80
2024/04/16 02:02:39;;;;;;;5.70;0.85;;;6.70;99.90;;;;;;5353854;26;20040;-80
2024/04/16 02:05:06;;;;;;;5.28;0.57;;;6.70;99.90;;;;;;5383168;26;20011;-79
2024/04/16 02:07:33;;;;;;;3.22;0.50;;;6.70;99.90;;;;;;5384866;26;20004;-79
2024/04/16 02:10:01;;;;;;;4.60;0.57;;;6.70;99.90;;;;;;5361938;26;20011;-79
2024/04/16 02:12:28;;;;;;;4.43;0.57;;;6.70;99.90;;;;;;5354155;26;20057;-79
2024/04/16 02:14:55;;;;;;;5.60;0.77;;;6.60;99.90;;;;;;5382991;26;20452;-79
2024/04/16 02:17:23;;;;;;;2.20;0.47;;;6.60;99.90;;;;;;5383023;26;20010;-79
2024/04/16 02:19:53;;;;;;;2.83;0.40;;;6.50;99.90;;;;;;5384113;26;20078;-79
2024/04/16 02:22:20;;;;;;;3.17;0.47;;;6.50;99.90;;;;;;5383029;26;20008;-78
2024/04/16 02:24:47;;;;;;;1.20;0.30;;;6.40;99.90;;;;;;5383033;26;20011;-79
2024/04/16 02:27:14;;;;;;;3.17;0.50;;;6.50;99.90;;;;;;5325104;26;20010;-79
2024/04/16 02:29:41;;;;;;;3.88;0.50;;;6.50;99.90;;;;;;5384726;26;20028;-80
2024/04/16 02:32:08;;;;;;;4.00;0.47;;;6.60;99.90;;;;;;5382963;26;20008;-80
2024/04/16 02:34:35;;;;;;;2.97;0.88;;;6.50;99.90;;;;;;5382428;26;20000;-80
2024/04/16 02:37:03;;;;;;;6.53;0.70;;;6.40;99.90;;;;;;5376563;26;20007;-81
2024/04/16 02:39:33;;;;;;;4.68;0.50;;;6.20;99.90;;;;;;5382771;26;20001;-83
2024/04/16 02:42:00;;;;;;;6.55;2.50;;;6.10;99.90;;;;;;5324769;26;20004;-82
2024/04/16 02:44:27;;;;;;;3.08;0.30;;;5.90;99.90;;;;;;5376632;26;20001;-82
2024/04/16 02:46:54;;;;;;;3.35;0.20;;;5.90;99.90;;;;;;5372235;26;20326;-80
2024/04/16 02:49:21;;;;;;;2.40;0.20;;;5.80;99.90;;;;;;5382185;26;20011;-83
2024/04/16 02:51:48;;;;;;;2.20;0.20;;;5.60;99.90;;;;;;5353338;26;20000;-84
2024/04/16 02:54:16;;;;;;;1.48;0.10;;;5.60;99.90;;;;;;5382483;26;20008;-84
2024/04/16 02:56:43;;;;;;;0.88;0.10;;;5.50;99.90;;;;;;5382498;26;20051;-84
2024/04/16 02:59:10;;;;;;;0.57;0.10;;;5.40;99.90;;;;;;5382392;26;20039;-85
2024/04/16 03:01:37;;;;;;;0.75;0.10;;;5.40;99.90;;;;;;5382323;26;19996;-84
2024/04/16 03:04:07;;;;;;;0.52;0.08;;;5.30;99.90;;;;;;5383212;26;20000;-84
2024/04/16 03:06:37;;;;;;;2.75;0.70;;;5.30;99.90;;;;;;5325874;26;20336;-84
2024/04/16 03:09:05;;;;;;;1.38;0.10;;;5.20;99.90;;;;;;5352657;26;19996;-84
2024/04/16 03:11:32;;;;;;;0.57;0.10;;;5.20;99.90;;;;;;5352762;26;20094;-84
2024/04/16 03:14:00;;;;;;;2.50;0.20;;;5.20;99.90;;;;;;5353053;26;20000;-83
2024/04/16 03:16:29;;;;;;;1.35;0.10;;;5.10;99.90;;;;;;5353623;26;20403;-83
2024/04/16 03:18:58;;;;;;;2.25;0.17;;;5.10;99.90;;;;;;5324215;26;20000;-84
2024/04/16 03:21:26;;;;;;;0.50;0.10;;;5.10;99.90;;;;;;5381533;26;20026;-83
2024/04/16 03:23:53;;;;;;;0.93;0.10;;;5.10;99.90;;;;;;5324160;26;20340;-83
2024/04/16 03:26:20;;;;;;;0.20;0.10;;;5.10;99.90;;;;;;5381839;26;20004;-83
2024/04/16 03:28:47;;;;;;;0.70;0.10;;;5.10;99.90;;;;;;5382105;26;20065;-84
2024/04/16 03:31:14;;;;;;;0.22;0.00;;;5.10;99.90;;;;;;5352833;26;20459;-84
2024/04/16 03:33:41;;;;;;;0.93;0.10;;;5.10;99.90;;;;;;5381894;26;20030;-84
2024/04/16 03:36:11;;;;;;;0.65;0.05;;;5.10;99.90;;;;;;5381502;26;20000;-82
2024/04/16 03:38:38;;;;;;;1.08;0.35;;;5.10;99.90;;;;;;5381504;26;20097;-82
2024/04/16 03:41:05;;;;;;;1.02;0.10;;;5.10;99.90;;;;;;5324166;26;20426;-82
2024/04/16 03:43:32;;;;;;;1.13;0.10;;;5.10;99.90;;;;;;5383329;26;20012;-82
2024/04/16 03:46:00;;;;;;;0.50;0.20;;;5.10;99.90;;;;;;5375748;26;20029;-83
2024/04/16 03:48:27;;;;;;;1.80;0.10;;;5.10;99.90;;;;;;5340017;26;20011;-83
2024/04/16 03:50:54;;;;;;;3.85;0.20;;;5.20;99.90;;;;;;5381812;26;20362;-85
2024/04/16 03:53:22;;;;;;;1.75;0.30;;;5.20;99.90;;;;;;5381778;26;20069;-84
2024/04/16 03:55:49;;;;;;;3.58;0.32;;;5.30;99.90;;;;;;5352403;26;20444;-83
2024/04/16 03:58:16;;;;;;;0.88;0.20;;;5.30;99.90;;;;;;5352864;26;20011;-83
2024/04/16 04:03:32;;;;;;;3.53;0.40;;;5.40;99.90;;;;;;5381351;26;20027;-82
2024/04/16 04:06:00;;;;;;;0.77;0.20;;;5.40;99.90;;;;;;5381330;26;19996;-83
2024/04/16 04:08:27;;;;;;;1.15;0.40;;;5.50;99.90;;;;;;5381317;26;20000;-83
2024/04/16 04:10:54;;;;;;;0.40;0.10;;;5.50;99.90;;;;;;5381437;26;20011;-82
2024/04/16 04:13:22;;;;;;;1.55;0.20;;;5.50;99.90;;;;;;5381635;26;20015;-83
2024/04/16 04:15:49;;;;;;;2.15;0.30;;;5.50;99.90;;;;;;5383018;26;20059;-83
2024/04/16 04:18:16;;;;;;;2.40;0.20;;;5.50;99.90;;;;;;5381150;26;20008;-83
2024/04/16 04:20:46;;;;;;;1.85;0.20;;;5.50;99.90;;;;;;5351485;26;20039;-83
2024/04/16 04:23:14;;;;;;;1.35;0.10;;;5.50;99.90;;;;;;5380412;26;20181;-82
2024/04/16 04:25:41;;;;;;;1.38;0.20;;;5.50;99.90;;;;;;5376872;26;20052;-82
2024/04/16 04:28:09;;;;;;;1.45;0.40;;;5.60;99.90;;;;;;5381009;26;20028;-82
2024/04/16 04:30:37;;;;;;;1.65;0.20;;;5.60;99.90;;;;;;5351778;26;20008;-83
2024/04/16 04:33:11;;;;;;;0.30;0.20;;;5.60;99.90;;;;;;5381607;26;20076;-82
2024/04/16 04:35:45;;;;;;;2.80;0.57;;;5.70;99.90;;;;;;5381739;26;20000;-83
2024/04/16 04:38:12;;;;;;;0.70;0.30;;;5.70;99.90;;;;;;5380984;26;20024;-82
2024/04/16 04:40:42;;;;;;;2.70;0.30;;;5.70;99.90;;;;;;5382482;26;20514;-82
2024/04/16 04:43:09;;;;;;;3.15;0.38;;;5.70;99.90;;;;;;5352076;26;20007;-82
2024/04/16 04:45:36;;;;;;;1.23;0.20;;;5.70;99.90;;;;;;5351945;26;20008;-82
2024/04/16 04:48:04;;;;;;;1.45;0.30;;;5.70;99.90;;;;;;5352397;26;20401;-83
2024/04/16 04:50:31;;;;;;;2.63;0.32;;;5.80;99.90;;;;;;5380665;26;20004;-82
2024/04/16 04:53:00;;;;;;;3.22;0.35;;;5.80;99.90;;;;;;5380837;26;20029;-88
2024/04/16 04:55:31;;;;;;;6.35;0.60;;;5.80;99.90;;;;;;5382235;26;20004;-87
2024/04/16 04:58:00;;;;;;;3.15;0.82;;;5.80;99.90;;;;;;5380984;26;19997;-87
2024/04/16 05:00:28;;;;;;;1.17;0.45;;;5.80;99.90;;;;;;5381482;26;20032;-87
2024/04/16 05:02:55;;;;;;;3.60;1.02;;;5.80;99.90;;;;;;5381070;26;20000;-86
2024/04/16 05:05:22;;;;;;;2.70;0.63;;;5.80;99.90;;;;;;5376466;26;20033;-84
2024/04/16 05:07:49;;;;;;;1.80;0.60;;;5.90;99.90;;;;;;5409672;26;20358;-85
2024/04/16 05:10:16;;;;;;;1.27;0.38;;;5.90;99.90;;;;;;5380778;26;20004;-86
2024/04/16 05:12:43;;;;;;;4.50;1.02;;;5.90;99.90;;;;;;5381110;26;20011;-86
2024/04/16 05:15:13;;;;;;;4.13;1.58;;;5.90;99.90;;;;;;5380659;26;20015;-86
2024/04/16 05:17:42;;;;;;;6.03;1.90;;;5.90;99.90;;;;;;5381017;26;20482;-90
2024/04/16 05:20:09;;;;;;;3.75;1.10;;;5.90;99.90;;;;;;5381796;26;20345;-89
2024/04/16 05:22:36;;;;;;;6.35;1.08;;;5.80;99.90;;;;;;5346909;26;20012;-89
2024/04/16 05:25:04;;;;;;;2.42;0.77;;;5.80;99.90;;;;;;5346044;26;20005;-86
2024/04/16 05:27:31;;;;;;;2.33;0.82;;;5.80;99.90;;;;;;5374355;26;20068;-87
2024/04/16 05:29:58;;;;;;;2.22;0.50;;;5.80;99.90;;;;;;5380561;26;20016;-89
2024/04/16 05:32:26;;;;;;;3.33;0.30;;;5.70;99.90;;;;;;5380315;26;20070;-87
2024/04/16 05:34:53;;;;;;;3.22;0.73;;;5.80;99.90;;;;;;5381388;26;20463;-88
2024/04/16 05:37:20;;;;;;;2.05;0.50;;;5.70;99.90;;;;;;5362394;26;20004;-86
2024/04/16 05:39:47;;;;;;;0.98;0.40;;;5.70;99.90;;;;;;5380282;26;20078;-87
2024/04/16 05:42:14;;;;;;;2.42;0.35;;;5.70;99.90;;;;;;5380679;26;19997;-87
2024/04/16 05:44:41;;;;;;;3.22;0.60;;;5.70;99.90;;;;;;5380865;26;20000;-86
2024/04/16 05:47:11;;;;;;;1.63;0.40;;;5.60;99.90;;;;;;5382328;26;20007;-88
2024/04/16 05:49:44;;;;;;;1.98;0.50;;;5.60;99.90;;;;;;5352417;26;20004;-88
2024/04/16 05:52:11;;;;;;;2.28;0.30;;;5.70;99.90;;;;;;5317323;26;20004;-88
2024/04/16 05:54:41;;;;;;;1.80;0.50;;;5.60;99.90;;;;;;5345866;26;20048;-88
2024/04/16 05:57:08;;;;;;;1.95;0.50;;;5.70;99.90;;;;;;5373050;26;20008;-88
2024/04/16 05:59:41;;;;;;;1.35;0.50;;;5.70;99.90;;;;;;5345669;26;20005;-89
2024/04/16 06:02:09;;;;;;;1.98;0.50;;;5.80;99.90;;;;;;5262383;26;19997;-88
2024/04/16 06:04:36;;;;;;;2.22;0.63;;;5.80;99.90;;;;;;5288217;26;20012;-88
2024/04/16 06:07:06;;;;;;;1.70;0.63;;;5.80;99.90;;;;;;5289096;26;20001;-89
2024/04/16 06:09:33;;;;;;;3.47;0.60;;;5.80;99.90;;;;;;5311505;26;20000;-89
2024/04/16 06:12:00;;;;;;;1.05;0.50;;;5.90;99.90;;;;;;5380949;26;20073;-89
2024/04/16 06:14:27;;;;;;;3.13;0.50;;;6.00;99.90;;;;;;5380403;26;20467;-90
2024/04/16 06:16:55;;;;;;;1.20;0.52;;;6.00;99.90;;;;;;5380766;26;20317;-89
2024/04/16 06:19:22;;;;;;;2.00;0.80;;;6.10;99.90;;;;;;5322848;26;20336;-88
2024/04/16 06:21:49;;;;;;;2.75;0.75;;;6.20;99.90;;;;;;5351015;26;20452;-87
2024/04/16 06:24:16;;;;;;;1.98;1.00;;;6.20;99.90;;;;;;5351071;26;20031;-87
2024/04/16 06:26:43;;;;;;;4.03;0.90;;;6.30;99.90;;;;;;5379476;26;20332;-87
2024/04/16 06:29:10;;;;;;;1.25;0.60;;;6.40;99.90;;;;;;5322711;26;20008;-88
2024/04/16 06:31:37;;;;;;;3.88;0.80;;;6.40;99.90;;;;;;5351533;26;20004;-88
2024/04/16 06:34:05;;;;;;;3.90;1.00;;;6.50;99.90;;;;;;5351519;26;20000;-88
2024/04/16 06:36:32;;;;;;;7.30;1.40;;;6.60;99.90;;;;;;5379377;26;20032;-87
2024/04/16 06:38:59;;;;;;;5.22;1.45;;;6.70;99.90;;;;;;5379459;26;20000;-88
2024/04/16 06:41:26;;;;;;;7.00;1.20;;;6.80;99.90;;;;;;5379445;26;20004;-87
2024/04/16 06:43:54;;;;;;;4.15;1.15;;;6.80;99.90;;;;;;5379312;26;20011;-87
2024/04/16 06:46:21;;;;;;;5.30;1.20;;;7.00;99.90;;;;;;5382215;26;20000;-87
2024/04/16 06:48:51;;;;;;;4.75;1.15;;;7.10;99.90;;;;;;5325585;26;20001;-88
2024/04/16 06:51:34;;;;;;;3.85;0.82;;;7.20;99.90;;;;;;5382768;26;20361;-86
2024/04/16 06:54:01;;;;;;;6.85;1.17;;;7.30;99.90;;;;;;5382859;26;20001;-86
2024/04/16 06:56:28;;;;;;;8.52;1.83;;;7.40;99.90;;;;;;5348265;26;20367;-87
2024/04/16 06:58:55;;;;;;;7.85;1.20;;;7.50;99.90;;;;;;5376952;26;20012;-85
2024/04/16 07:01:25;;;;;;;6.65;1.85;;;7.60;99.90;;;;;;5347577;26;20011;-89
2024/04/16 07:03:57;;;;;;;3.30;0.98;;;7.60;99.90;;;;;;5348679;26;20005;-85
2024/04/16 07:06:26;;;;;;;3.67;0.80;;;7.60;99.90;;;;;;5347920;26;20037;-84
2024/04/16 07:08:53;;;;;;;4.35;1.00;;;7.70;99.90;;;;;;5324780;26;20333;-85
2024/04/16 07:11:20;;;;;;;2.45;0.73;;;7.80;99.90;;;;;;5382293;26;20078;-85
2024/04/16 07:13:47;;;;;;;4.03;0.90;;;8.00;99.90;;;;;;5382728;26;20050;-84
2024/04/16 07:16:14;;;;;;;6.63;1.60;;;8.00;99.90;;;;;;5353372;26;20000;-88
2024/04/16 07:18:42;;;;;;;5.70;1.92;;;8.00;99.90;;;;;;5353483;26;20011;-88
2024/04/16 07:21:12;;;;;;;4.50;1.38;;;8.00;99.90;;;;;;5382088;26;20406;-87
2024/04/16 07:23:39;;;;;;;8.35;1.90;;;8.10;99.90;;;;;;5353077;26;19996;-86
2024/04/16 07:26:06;;;;;;;6.63;1.40;;;8.10;99.90;;;;;;5381906;26;20074;-86
2024/04/16 07:28:33;;;;;;;8.65;2.13;;;8.20;99.90;;;;;;5324984;26;20007;-90
2024/04/16 07:31:05;;;;;;;7.30;1.48;;;8.20;99.90;;;;;;5383059;26;20012;-90
2024/04/16 07:33:42;;;;;;;9.68;1.73;;;8.30;99.90;;;;;;5381913;26;20000;-86
2024/04/16 07:36:10;;;;;;;7.80;1.35;;;8.20;99.90;;;;;;5381929;26;20466;-87
2024/04/16 07:38:37;;;;;;;7.13;1.85;;;8.20;99.90;;;;;;5353071;26;20074;-85
2024/04/16 07:41:05;;;;;;;6.95;1.90;;;8.10;99.90;;;;;;5382193;26;20001;-85
2024/04/16 07:43:34;;;;;;;6.88;1.25;;;8.10;99.90;;;;;;5382304;26;19996;-87
2024/04/16 07:46:01;;;;;;;6.82;2.00;;;8.00;99.90;;;;;;5382587;26;20476;-87
2024/04/16 07:48:29;;;;;;;4.03;1.33;;;8.00;99.90;;;;;;5364148;26;20012;-88
2024/04/16 07:50:56;;;;;;;4.47;1.33;;;8.00;99.90;;;;;;5318787;26;20004;-88
2024/04/16 07:53:23;;;;;;;7.05;1.27;;;8.00;99.90;;;;;;5318577;26;20008;-88
2024/04/16 07:55:50;;;;;;;8.55;1.10;;;8.10;99.90;;;;;;5377303;26;20007;-89
2024/04/16 07:58:20;;;;;;;6.90;1.20;;;8.20;99.90;;;;;;5375637;26;20008;-89
2024/04/16 08:00:50;;;;;;;6.10;1.27;;;8.30;99.90;;;;;;5318934;26;20008;-88
2024/04/16 08:03:17;;;;;;;7.20;1.48;;;8.30;99.90;;;;;;5318545;26;20004;-90
2024/04/16 08:05:44;;;;;;;10.07;1.42;;;8.20;99.90;;;;;;5295512;26;20089;-89
2024/04/16 08:08:14;;;;;;;6.85;1.20;;;8.30;99.90;;;;;;5381887;26;20004;-90
2024/04/16 08:10:48;;;;;;;5.45;0.93;;;8.40;99.90;;;;;;5355051;26;20012;-88
2024/04/16 08:13:15;;;;;;;9.85;1.20;;;8.60;99.90;;;;;;5352837;26;20007;-88
2024/04/16 08:15:46;;;;;;;4.90;1.35;;;8.60;99.90;;;;;;5381890;26;20004;-88
2024/04/16 08:18:13;;;;;;;7.85;1.30;;;8.70;99.90;;;;;;5381557;26;20000;-87
2024/04/16 08:20:42;;;;;;;3.42;0.93;;;8.80;99.90;;;;;;5382010;26;20019;-85
2024/04/16 08:23:09;;;;;;;5.05;1.00;;;8.80;99.90;;;;;;5381558;26;20003;-87
2024/04/16 08:25:36;;;;;;;6.75;0.80;;;8.90;99.90;;;;;;5381672;26;20004;-88
2024/04/16 08:28:04;;;;;;;6.32;1.27;;;9.00;99.90;;;;;;5352345;26;20000;-87
2024/04/16 08:30:31;;;;;;;4.70;1.50;;;9.10;99.90;;;;;;5381334;26;20051;-87
2024/04/16 08:32:58;;;;;;;4.85;0.80;;;9.20;99.90;;;;;;5381131;26;20011;-86
2024/04/16 08:35:27;;;;;;;4.70;0.60;;;9.30;99.90;;;;;;5381074;26;20012;-86
2024/04/16 08:37:55;;;;;;;4.00;0.70;;;9.40;99.90;;;;;;5381248;26;19996;-86
2024/04/16 08:40:23;;;;;;;6.60;1.05;;;9.50;99.90;;;;;;5346647;26;20005;-86
2024/04/16 08:42:52;;;;;;;3.72;0.40;;;9.60;99.90;;;;;;5347782;26;19997;-87
2024/04/16 08:45:23;;;;;;;2.97;0.30;;;9.70;99.90;;;;;;5407289;26;20441;-88
2024/04/16 08:47:53;;;;;;;4.07;0.38;;;9.80;99.90;;;;;;5352897;26;20012;-85
2024/04/16 08:50:23;;;;;;;3.92;0.57;;;9.80;99.90;;;;;;5380965;26;20000;-86
2024/04/16 08:52:51;;;;;;;3.97;0.45;;;9.90;99.90;;;;;;5381060;26;20000;-86
2024/04/16 08:55:20;;;;;;;3.45;0.38;;;9.90;99.90;;;;;;5409659;26;20471;-86
2024/04/16 08:57:49;;;;;;;4.18;0.50;;;9.90;99.90;;;;;;5381123;26;20445;-86
2024/04/16 09:00:17;;;;;;;3.35;0.50;;;9.90;99.90;;;;;;5380597;26;20011;-86
2024/04/16 09:02:50;;;;;;;3.70;0.50;;;9.90;99.90;;;;;;5352419;26;20012;-87
2024/04/16 09:05:18;;;;;;;1.90;0.30;;;10.00;99.90;;;;;;5380767;26;20003;-88
2024/04/16 09:07:48;;;;;;;1.92;0.60;;;10.10;99.90;;;;;;5381491;26;20489;-83
2024/04/16 09:10:18;;;;;;;1.95;0.32;;;10.30;99.90;;;;;;5381354;26;19996;-86
2024/04/16 09:12:47;;;;;;;5.20;0.40;;;10.40;99.90;;;;;;5380306;26;20008;-84
2024/04/16 09:15:16;;;;;;;1.90;0.35;;;10.50;99.90;;;;;;5381058;26;20372;-85
2024/04/16 09:17:54;;;;;;;3.00;0.65;;;10.30;99.90;;;;;;5410099;26;20008;-85
2024/04/16 09:20:27;;;;;;;2.78;0.30;;;10.00;99.90;;;;;;5410052;26;20011;-86
2024/04/16 09:22:55;;;;;;;2.20;0.40;;;9.70;99.90;;;;;;5380733;26;20069;-85
2024/04/16 09:25:24;;;;;;;4.45;0.35;;;9.70;99.90;;;;;;5380704;26;20011;-85
2024/04/16 09:27:52;;;;;;;3.67;0.50;;;9.80;99.90;;;;;;5380534;26;19996;-86
2024/04/16 09:30:21;;;;;;;2.53;0.50;;;9.90;99.90;;;;;;5380333;26;20024;-85
2024/04/16 09:33:03;;;;;;;3.10;0.70;;;10.00;99.90;;;;;;5354316;26;20012;-87
2024/04/16 09:35:40;;;;;;;3.28;0.30;;;10.10;99.90;;;;;;5381960;26;20000;-85
2024/04/16 09:38:09;;;;;;;2.25;0.35;;;10.20;99.90;;;;;;5380892;26;20034;-85
2024/04/16 09:40:36;;;;;;;4.00;0.82;;;10.20;99.90;;;;;;5380146;26;20012;-85
2024/04/16 09:43:05;;;;;;;2.90;0.30;;;9.90;99.90;;;;;;5351495;26;20076;-86
2024/04/16 09:45:35;;;;;;;4.10;0.40;;;9.70;99.90;;;;;;5380347;26;20008;-86
2024/04/16 09:48:06;;;;;;;1.77;0.40;;;9.60;99.90;;;;;;5382425;26;20028;-87
2024/04/16 09:50:35;;;;;;;3.75;0.50;;;9.50;99.90;;;;;;5409551;26;20019;-86
2024/04/16 09:53:22;;;;;;;2.80;0.40;;;9.50;99.90;;;;;;5380118;26;20000;-87
2024/04/16 09:55:52;;;;;;;3.28;0.47;;;9.40;99.90;;;;;;5409472;26;20456;-90
2024/04/16 09:58:21;;;;;;;1.85;0.28;;;9.40;99.90;;;;;;5380411;26;20005;-87
2024/04/16 10:00:51;;;;;;;1.55;0.25;;;9.40;99.90;;;;;;5380590;26;20004;-90
2024/04/16 10:03:21;;;;;;;1.17;0.20;;;9.30;99.90;;;;;;5375127;26;20041;-89
2024/04/16 10:05:49;;;;;;;1.75;0.22;;;9.30;99.90;;;;;;5372781;26;20012;-89
2024/04/16 10:08:16;;;;;;;1.05;0.20;;;9.30;99.90;;;;;;5382067;26;20004;-86
2024/04/16 10:10:45;;;;;;;1.50;0.20;;;9.40;99.90;;;;;;5351043;26;20453;-86
2024/04/16 10:13:13;;;;;;;2.25;0.65;;;9.40;99.90;;;;;;5301550;26;20008;-86
2024/04/16 10:15:47;;;;;;;1.73;0.60;;;9.50;99.90;;;;;;5332240;26;20009;-86
2024/04/16 10:18:15;;;;;;;3.58;0.40;;;9.60;99.90;;;;;;5369509;26;20008;-89
2024/04/16 10:20:55;;;;;;;2.47;0.28;;;9.60;99.90;;;;;;5398597;26;20340;-87
2024/04/16 10:23:22;;;;;;;2.58;0.30;;;9.80;99.90;;;;;;5373174;26;20004;-85
2024/04/16 10:25:53;;;;;;;1.95;0.30;;;9.80;99.90;;;;;;5319482;26;19997;-85
2024/04/16 10:28:30;;;;;;;1.63;0.30;;;9.80;99.90;;;;;;5373713;26;20000;-86
2024/04/16 10:31:03;;;;;;;1.42;0.50;;;9.80;99.90;;;;;;5363588;26;20012;-85
2024/04/16 10:33:35;;;;;;;2.97;0.32;;;9.90;99.90;;;;;;5354232;26;20069;-86
2024/04/16 10:36:09;;;;;;;1.25;0.25;;;9.90;99.90;;;;;;5383185;26;20453;-84
2024/04/16 10:38:36;;;;;;;3.15;0.30;;;10.00;99.90;;;;;;5383597;26;20023;-86
2024/04/16 10:41:04;;;;;;;1.88;0.30;;;10.30;99.90;;;;;;5383056;26;20004;-85
2024/04/16 10:43:41;;;;;;;3.05;0.25;;;10.50;99.90;;;;;;5382723;26;20004;-86
2024/04/16 10:46:09;;;;;;;1.83;0.20;;;10.50;99.90;;;;;;5349646;26;20036;-86
2024/04/16 10:48:36;;;;;;;1.58;0.20;;;10.70;99.90;;;;;;5319734;26;20042;-86
2024/04/16 10:51:12;;;;;;;0.45;0.10;;;11.10;99.90;;;;;;5348553;26;20008;-83
2024/04/16 10:53:40;;;;;;;1.83;0.20;;;11.70;99.90;;;;;;5376664;26;20070;-83
2024/04/16 10:56:08;;;;;;;1.25;0.22;;;11.50;99.90;;;;;;5347942;26;20011;-82
2024/04/16 10:58:35;;;;;;;1.92;0.30;;;11.40;99.90;;;;;;5347389;26;20036;-84
2024/04/16 11:01:04;;;;;;;1.98;0.20;;;11.50;99.90;;;;;;5354383;26;20032;-84
2024/04/16 11:03:35;;;;;;;2.42;0.20;;;11.90;99.90;;;;;;5382804;26;20436;-83
2024/04/16 11:06:02;;;;;;;0.98;0.20;;;11.90;99.90;;;;;;5382773;26;20004;-85
2024/04/16 11:08:31;;;;;;;2.42;0.30;;;11.70;99.90;;;;;;5382422;26;20014;-85
2024/04/16 11:10:59;;;;;;;0.90;0.10;;;11.40;99.90;;;;;;5383145;26;20000;-83
2024/04/16 11:13:27;;;;;;;2.17;0.20;;;11.20;99.90;;;;;;5383809;26;20004;-83
2024/04/16 11:15:54;;;;;;;1.10;0.28;;;11.00;99.90;;;;;;5383806;26;20010;-83
2024/04/16 11:18:22;;;;;;;0.50;0.10;;;11.00;99.90;;;;;;5383611;26;20072;-83
2024/04/16 11:20:49;;;;;;;2.55;0.10;;;10.90;99.90;;;;;;5382166;26;20000;-84
2024/04/16 11:23:17;;;;;;;1.02;0.20;;;10.90;99.90;;;;;;5383961;26;20076;-83
2024/04/16 11:25:46;;;;;;;0.40;0.10;;;11.10;99.90;;;;;;5318985;26;20407;-84
2024/04/16 11:28:14;;;;;;;1.10;0.00;;;11.80;99.90;;;;;;5349449;26;20004;-84
2024/04/16 11:30:54;;;;;;;0.65;0.10;;;12.70;99.40;;;;;;5381127;26;20007;-85
2024/04/16 11:33:21;;;;;;;0.60;0.10;;;13.20;98.30;;;;;;5411778;26;20000;-78
2024/04/16 11:36:04;;;;;;;0.40;0.05;;;13.30;97.80;;;;;;5383731;26;20012;-78
2024/04/16 11:38:39;;;;;;;1.33;0.15;;;13.10;98.00;;;;;;5381374;26;20452;-78
2024/04/16 11:41:07;;;;;;;1.08;0.10;;;13.20;97.90;;;;;;5383303;26;20011;-79
2024/04/16 11:43:41;;;;;;;0.52;0.05;;;13.70;97.20;;;;;;5382793;26;20070;-78
2024/04/16 11:46:12;;;;;;;0.95;0.10;;;14.20;95.60;;;;;;5382514;26;20007;-79
2024/04/16 11:48:42;;;;;;;0.03;0.00;;;14.40;95.20;;;;;;5381395;26;20024;-77
2024/04/16 11:51:11;;;;;;;1.40;0.10;;;14.30;95.10;;;;;;5383540;26;20008;-84
2024/04/16 11:53:43;;;;;;;0.40;0.00;;;14.20;93.40;;;;;;5411087;26;20107;-82
2024/04/16 11:56:11;;;;;;;;;;;13.70;94.40;;;;;;5381758;26;20069;-84
2024/04/16 11:58:42;;;;;;;0.28;0.00;;;13.40;95.40;;;;;;5383151;26;19926;-83
2024/04/16 12:01:10;;;;;;;0.40;0.10;;;13.20;95.60;;;;;;5383154;26;20460;-85
2024/04/16 12:03:41;;;;;;;1.33;0.20;;;13.20;95.60;;;;;;5381600;26;20028;-87
2024/04/16 12:06:11;;;;;;;0.73;0.10;;;12.90;94.80;;;;;;5347580;26;20004;-90
2024/04/16 12:08:40;;;;;;;0.98;0.00;;;12.60;95.10;;;;;;5366457;26;20032;-90
2024/04/16 12:11:11;;;;;;;0.50;0.08;;;12.40;95.70;;;;;;5347540;26;20008;-91
2024/04/16 12:13:40;;;;;;;0.50;0.17;;;12.40;94.90;;;;;;5347754;26;20008;-91
2024/04/16 12:16:10;;;;;;;0.75;0.10;;;12.40;94.50;;;;;;5348040;26;20073;-89
2024/04/16 12:18:38;;;;;;;0.32;0.05;;;12.40;94.80;;;;;;5411890;26;20052;-88
2024/04/16 12:21:06;;;;;;;0.10;0.00;;;12.60;95.00;;;;;;5384312;26;20011;-91
2024/04/16 12:23:33;;;;;;;0.45;0.00;;;12.70;93.80;;;;;;5381790;26;20070;-89
2024/04/16 12:26:00;;;;;;;0.65;0.10;;;12.80;93.90;;;;;;5381961;26;20011;-85
2024/04/16 12:28:29;;;;;;;0.20;0.00;;;13.00;93.90;;;;;;5334029;26;19996;-86
2024/04/16 12:30:56;;;;;;;0.10;0.00;;;13.20;93.50;;;;;;5352950;26;20344;-88
2024/04/16 12:33:23;;;;;;;0.55;0.00;;;13.10;93.50;;;;;;5352345;26;20000;-87
2024/04/16 12:35:50;;;;;;;1.13;0.00;;;12.60;93.70;;;;;;5411476;26;20030;-92
2024/04/16 12:38:18;;;;;;;1.88;0.08;;;11.90;94.70;;;;;;5352938;26;20019;-89
2024/04/16 12:40:46;;;;;;;0.70;0.08;;;11.10;95.70;;;;;;5382139;26;20356;-87
2024/04/16 12:43:14;;;;;;;1.55;0.00;;;10.80;96.90;;;;;;5381722;26;20003;-89
2024/04/16 12:45:42;;;;;;;0.00;0.00;;;10.70;97.40;;;;;;5381670;26;20004;-88
2024/04/16 12:48:17;;;;;;;0.00;0.00;;;10.50;97.90;;;;;;5381751;26;20019;-88
2024/04/16 12:50:46;;;;;;;0.45;0.00;;;10.60;98.40;;;;;;5381516;26;20000;-88
2024/04/16 12:53:13;;;;;;;0.28;0.00;;;10.80;98.50;;;;;;5324210;26;20016;-87
2024/04/16 12:55:41;;;;;;;0.20;0.10;;;11.20;98.50;;;;;;5351818;26;20024;-88
2024/04/16 12:58:11;;;;;;;0.63;0.05;;;11.60;98.10;;;;;;5381106;26;20451;-88
2024/04/16 13:00:39;;;;;;;0.88;0.30;;;11.70;97.80;;;;;;5352122;26;20000;-86
2024/04/16 13:03:07;;;;;;;1.08;0.10;;;11.70;97.60;;;;;;5353289;26;20000;-89
2024/04/16 13:05:34;;;;;;;0.43;0.05;;;11.40;97.80;;;;;;5410765;26;20012;-88